createdAt,value
2019-05-05T00:04:00.571Z,3.26
2019-05-05T00:09:08.167Z,3.19
2019-05-05T00:14:15.816Z,3.31
2019-05-05T00:24:30.619Z,3.19
2019-05-05T00:29:38.208Z,3.42
2019-05-05T00:34:45.867Z,3.29
2019-05-05T00:39:54.299Z,3.47
2019-05-05T00:45:00.638Z,3.42
2019-05-05T00:50:08.236Z,3.42
2019-05-05T00:55:15.868Z,3.39
2019-05-05T01:00:24.458Z,3.46
2019-05-05T01:05:30.640Z,3.37
2019-05-05T01:10:38.250Z,3.50
2019-05-05T01:15:45.873Z,3.40
2019-05-05T01:20:55.227Z,3.66
2019-05-05T01:26:00.653Z,3.81
2019-05-05T01:31:08.253Z,4.13
2019-05-05T01:36:15.917Z,4.20
2019-05-05T01:41:25.242Z,3.69
2019-05-05T01:46:30.702Z,3.88
2019-05-05T01:51:38.287Z,4.17
2019-05-05T01:56:45.920Z,4.03
2019-05-05T02:01:55.109Z,4.14
2019-05-05T02:07:00.681Z,4.23
2019-05-05T02:12:08.284Z,4.78
2019-05-05T02:17:15.939Z,4.46
2019-05-05T02:22:25.290Z,4.92
2019-05-05T02:27:30.691Z,4.37
2019-05-05T02:32:38.288Z,4.71
2019-05-05T02:37:46.057Z,4.78
2019-05-05T02:42:54.889Z,4.78
2019-05-05T02:48:00.707Z,4.83
2019-05-05T02:53:08.329Z,5.17
2019-05-05T02:58:15.954Z,5.06
2019-05-05T03:03:23.942Z,5.43
2019-05-05T03:08:30.769Z,6.07
2019-05-05T03:13:38.394Z,5.38
2019-05-05T03:18:46.065Z,5.42
2019-05-05T03:23:54.746Z,5.39
2019-05-05T03:29:00.792Z,5.33
2019-05-05T03:34:08.405Z,5.35
2019-05-05T03:39:16.059Z,5.45
2019-05-05T03:44:24.136Z,6.02
2019-05-05T03:49:30.885Z,5.29
2019-05-05T03:54:38.498Z,5.85
2019-05-05T03:59:46.154Z,6.02
2019-05-05T04:04:55.006Z,5.53
2019-05-05T04:10:00.956Z,5.18
2019-05-05T04:15:08.561Z,5.17
2019-05-05T04:20:16.335Z,5.07
2019-05-05T04:25:24.375Z,5.10
2019-05-05T04:30:31.122Z,5.19
2019-05-05T04:35:38.731Z,5.08
2019-05-05T04:40:46.364Z,5.29
2019-05-05T04:45:54.142Z,5.24
2019-05-05T04:51:01.625Z,5.14
2019-05-05T04:56:09.247Z,5.04
2019-05-05T05:01:16.884Z,5.18
2019-05-05T05:06:24.488Z,5.29
2019-05-05T05:11:33.555Z,5.16
2019-05-05T05:16:39.263Z,4.69
2019-05-05T05:21:58.298Z,5.19
2019-05-05T05:26:55.559Z,5.14
2019-05-05T05:32:01.282Z,4.91
2019-05-05T05:37:08.909Z,5.00
2019-05-05T05:42:16.593Z,5.23
2019-05-05T05:47:24.496Z,5.68
2019-05-05T05:52:31.871Z,5.26
2019-05-05T05:57:39.486Z,5.35
2019-05-05T06:02:47.191Z,5.52
2019-05-05T06:07:54.845Z,5.61
2019-05-05T06:13:04.121Z,6.40
2019-05-05T06:18:09.655Z,6.14
2019-05-05T06:23:17.285Z,6.15
2019-05-05T06:28:24.906Z,5.91
2019-05-05T06:33:34.543Z,5.28
2019-05-05T06:38:39.680Z,5.38
2019-05-05T06:43:47.353Z,5.82
2019-05-05T06:48:54.953Z,6.01
2019-05-05T06:54:04.470Z,6.21
2019-05-05T06:59:09.754Z,4.88
2019-05-05T07:04:17.433Z,4.92
2019-05-05T07:09:25.011Z,4.67
2019-05-05T07:14:34.023Z,5.09
2019-05-05T07:19:39.767Z,4.84
2019-05-05T07:24:47.452Z,5.01
2019-05-05T07:29:55.054Z,5.73
2019-05-05T07:35:04.133Z,5.89
2019-05-05T07:40:09.908Z,5.50
2019-05-05T07:45:22.616Z,4.75
2019-05-05T07:50:31.321Z,4.62
2019-05-05T07:55:31.891Z,4.76
2019-05-05T08:00:39.470Z,5.00
2019-05-05T08:05:47.156Z,4.67
2019-05-05T08:10:54.821Z,5.35
2019-05-05T08:16:03.799Z,5.16
2019-05-05T08:21:09.598Z,5.09
2019-05-05T08:26:17.210Z,5.42
2019-05-05T08:31:25.032Z,5.63
2019-05-05T08:36:33.871Z,5.11
2019-05-05T08:41:39.674Z,5.87
2019-05-05T08:46:47.353Z,7.00
2019-05-05T08:51:54.942Z,6.09
2019-05-05T08:57:04.240Z,5.94
2019-05-05T09:02:09.748Z,5.91
2019-05-05T09:07:17.401Z,6.09
2019-05-05T09:12:24.989Z,5.77
2019-05-05T09:17:33.660Z,6.05
2019-05-05T09:22:39.711Z,6.33
2019-05-05T09:27:47.319Z,5.74
2019-05-05T09:32:54.916Z,5.66
2019-05-05T09:38:03.999Z,5.69
2019-05-05T09:43:09.720Z,6.04
2019-05-05T09:48:17.343Z,6.53
2019-05-05T09:53:27.360Z,6.45
2019-05-05T09:58:34.583Z,7.09
2019-05-05T10:03:39.410Z,6.27
2019-05-05T10:08:47.049Z,6.53
2019-05-05T10:13:54.713Z,6.40
2019-05-05T10:19:04.404Z,6.56
2019-05-05T10:24:09.392Z,6.68
2019-05-05T10:29:17.026Z,7.22
2019-05-05T10:34:24.624Z,6.29
2019-05-05T10:39:33.489Z,5.21
2019-05-05T10:44:39.402Z,6.11
2019-05-05T10:49:47.075Z,6.49
2019-05-05T10:54:54.894Z,6.40
2019-05-05T11:00:10.994Z,5.92
2019-05-05T11:05:09.445Z,6.54
2019-05-05T11:10:17.094Z,6.56
2019-05-05T11:15:24.751Z,6.64
2019-05-05T11:20:33.985Z,6.33
2019-05-05T11:25:39.442Z,6.25
2019-05-05T11:30:47.193Z,6.44
2019-05-05T11:35:54.794Z,6.40
2019-05-05T11:41:04.664Z,5.68
2019-05-05T11:46:09.576Z,6.11
2019-05-05T11:51:17.207Z,6.45
2019-05-05T11:56:24.819Z,6.25
2019-05-05T12:01:32.505Z,5.42
2019-05-05T12:06:40.085Z,5.85
2019-05-05T12:11:47.760Z,7.21
2019-05-05T12:16:55.356Z,6.14
2019-05-05T12:22:03.014Z,6.16
2019-05-05T12:27:10.629Z,6.00
2019-05-05T12:32:18.288Z,5.18
2019-05-05T12:37:25.884Z,5.34
2019-05-05T12:42:33.559Z,5.14
2019-05-05T12:47:41.165Z,6.20
2019-05-05T12:52:48.803Z,5.70
2019-05-05T12:57:56.392Z,6.04
2019-05-05T13:03:04.473Z,6.00
2019-05-05T13:08:11.193Z,5.50
2019-05-05T13:13:18.840Z,4.81
2019-05-05T13:18:26.433Z,4.78
2019-05-05T13:23:34.116Z,4.48
2019-05-05T13:28:43.634Z,4.87
2019-05-05T13:33:48.837Z,4.84
2019-05-05T13:38:56.422Z,4.47
2019-05-05T13:44:04.529Z,4.57
2019-05-05T13:49:11.150Z,4.74
2019-05-05T13:54:18.778Z,5.03
2019-05-05T13:59:26.351Z,5.93
2019-05-05T14:04:34.431Z,4.89
2019-05-05T14:09:41.714Z,4.89
2019-05-05T14:14:49.326Z,4.60
2019-05-05T14:20:04.732Z,5.13
2019-05-05T14:25:04.390Z,4.79
2019-05-05T14:30:11.215Z,4.42
2019-05-05T14:35:18.849Z,4.52
2019-05-05T14:40:26.448Z,5.02
2019-05-05T14:45:34.149Z,4.94
2019-05-05T14:50:43.733Z,4.74
2019-05-05T14:55:48.907Z,4.42
2019-05-05T15:00:56.478Z,3.98
2019-05-05T15:06:04.154Z,4.28
2019-05-05T15:11:11.750Z,4.27
2019-05-05T15:16:19.368Z,4.17
2019-05-05T15:21:26.967Z,4.07
2019-05-05T15:26:34.757Z,4.25
2019-05-05T15:31:43.529Z,4.34
2019-05-05T15:36:49.550Z,4.09
2019-05-05T15:41:57.122Z,4.52
2019-05-05T15:47:04.760Z,4.39
2019-05-05T15:52:13.752Z,4.31
2019-05-05T15:57:19.594Z,4.40
2019-05-05T16:02:27.198Z,4.63
2019-05-05T16:07:34.799Z,4.47
2019-05-05T16:12:44.798Z,4.72
2019-05-05T16:17:49.580Z,4.73
2019-05-05T16:22:57.200Z,4.65
2019-05-05T16:28:05.540Z,4.75
2019-05-05T16:33:13.794Z,4.54
2019-05-05T16:38:19.325Z,4.49
2019-05-05T16:43:26.946Z,4.72
2019-05-05T16:48:34.615Z,4.62
2019-05-05T16:53:42.245Z,4.78
2019-05-05T16:58:49.888Z,4.53
2019-05-05T17:04:08.398Z,5.12
2019-05-05T17:09:06.831Z,4.89
2019-05-05T17:14:11.823Z,5.46
2019-05-05T17:19:19.467Z,5.05
2019-05-05T17:24:27.077Z,4.56
2019-05-05T17:29:34.642Z,4.31
2019-05-05T17:34:42.253Z,4.92
2019-05-05T17:39:49.941Z,4.52
2019-05-05T17:44:57.544Z,4.87
2019-05-05T17:50:05.239Z,4.70
2019-05-05T17:55:13.435Z,4.79
2019-05-05T18:00:20.082Z,4.77
2019-05-05T18:05:27.701Z,5.28
2019-05-05T18:10:35.401Z,4.69
2019-05-05T18:15:43.489Z,4.63
2019-05-05T18:20:50.162Z,4.51
2019-05-05T18:25:57.762Z,4.49
2019-05-05T18:31:05.686Z,4.56
2019-05-05T18:36:14.198Z,4.34
2019-05-05T18:41:20.395Z,4.51
2019-05-05T18:46:27.897Z,4.98
2019-05-05T18:51:35.554Z,4.85
2019-05-05T18:56:43.997Z,4.77
2019-05-05T19:01:50.378Z,4.82
2019-05-05T19:06:58.012Z,4.75
2019-05-05T19:12:05.756Z,5.01
2019-05-05T19:17:14.178Z,5.19
2019-05-05T19:22:20.550Z,4.85
2019-05-05T19:27:28.224Z,4.94
2019-05-05T19:32:36.950Z,4.90
2019-05-05T19:37:44.491Z,4.84
2019-05-05T19:42:50.425Z,5.07
2019-05-05T19:47:58.019Z,5.04
2019-05-05T19:53:05.751Z,4.76
2019-05-05T19:58:14.043Z,5.16
2019-05-05T20:03:20.616Z,5.32
2019-05-05T20:08:39.920Z,5.14
2019-05-05T20:13:35.351Z,5.44
2019-05-05T20:18:43.739Z,5.04
2019-05-05T20:23:50.179Z,4.95
2019-05-05T20:29:10.491Z,5.39
2019-05-05T20:34:04.997Z,4.98
2019-05-05T20:39:13.918Z,4.48
2019-05-05T20:44:19.848Z,5.26
2019-05-05T20:49:27.467Z,4.73
2019-05-05T20:54:35.165Z,4.83
2019-05-05T20:59:44.503Z,4.46
2019-05-05T21:04:49.914Z,4.49
2019-05-05T21:09:57.583Z,5.01
2019-05-05T21:15:05.208Z,5.01
2019-05-05T21:20:14.530Z,4.85
2019-05-05T21:25:19.985Z,5.00
2019-05-05T21:30:27.594Z,4.88
2019-05-05T21:35:35.271Z,4.52
2019-05-05T21:40:44.757Z,4.81
2019-05-05T21:45:53.783Z,4.95
2019-05-05T21:50:59.613Z,5.11
2019-05-05T21:56:07.313Z,4.53
2019-05-05T22:01:15.055Z,4.99
2019-05-05T22:06:24.115Z,4.93
2019-05-05T22:11:29.683Z,4.79
2019-05-05T22:16:37.338Z,4.75
2019-05-05T22:21:45.010Z,4.25
2019-05-05T22:26:54.080Z,4.13
2019-05-05T22:31:59.809Z,3.92
2019-05-05T22:37:09.598Z,4.10
2019-05-05T22:42:15.759Z,3.94
2019-05-05T22:47:23.584Z,4.31
2019-05-05T22:52:28.904Z,3.98
2019-05-05T22:57:36.575Z,4.06
2019-05-05T23:02:44.194Z,3.83
2019-05-05T23:07:51.864Z,3.96
2019-05-05T23:12:59.478Z,4.02
2019-05-05T23:18:07.115Z,3.87
2019-05-05T23:23:14.736Z,3.86
2019-05-05T23:28:23.707Z,4.05
2019-05-05T23:33:29.540Z,3.66
2019-05-05T23:38:37.166Z,4.04
2019-05-05T23:43:45.167Z,4.07
2019-05-05T23:48:53.714Z,3.73
2019-05-05T23:53:59.089Z,3.92
2019-05-05T23:59:06.705Z,4.05
